sensor_id;sensor_type;location;lat;lon;timestamp;P1;durP1;ratioP1;P2;durP2;ratioP2
5900;SDS011;2976;49.764;9.796;2022-07-21T00:01:15;15.13;;;9.63;;
5900;SDS011;2976;49.764;9.796;2022-07-21T00:03:40;19.13;;;9.57;;
5900;SDS011;2976;49.764;9.796;2022-07-21T00:06:06;14.77;;;9.90;;
5900;SDS011;2976;49.764;9.796;2022-07-21T00:08:32;13.80;;;9.80;;
5900;SDS011;2976;49.764;9.796;2022-07-21T00:10:58;12.60;;;10.00;;
5900;SDS011;2976;49.764;9.796;2022-07-21T00:13:23;15.67;;;9.90;;
5900;SDS011;2976;49.764;9.796;2022-07-21T00:15:49;18.70;;;11.30;;
5900;SDS011;2976;49.764;9.796;2022-07-21T00:18:15;14.37;;;10.13;;
5900;SDS011;2976;49.764;9.796;2022-07-21T00:20:42;14.13;;;9.60;;
5900;SDS011;2976;49.764;9.796;2022-07-21T00:23:07;13.27;;;10.77;;
5900;SDS011;2976;49.764;9.796;2022-07-21T00:25:33;11.77;;;10.20;;
5900;SDS011;2976;49.764;9.796;2022-07-21T00:27:59;14.30;;;11.40;;
5900;SDS011;2976;49.764;9.796;2022-07-21T00:30:24;18.47;;;11.70;;
5900;SDS011;2976;49.764;9.796;2022-07-21T00:32:50;15.97;;;11.33;;
5900;SDS011;2976;49.764;9.796;2022-07-21T00:35:15;14.70;;;11.67;;
5900;SDS011;2976;49.764;9.796;2022-07-21T00:37:41;16.30;;;12.40;;
5900;SDS011;2976;49.764;9.796;2022-07-21T00:40:08;15.90;;;11.93;;
5900;SDS011;2976;49.764;9.796;2022-07-21T00:42:34;15.73;;;12.90;;
5900;SDS011;2976;49.764;9.796;2022-07-21T00:45:00;15.00;;;11.77;;
5900;SDS011;2976;49.764;9.796;2022-07-21T00:47:29;16.27;;;11.80;;
5900;SDS011;2976;49.764;9.796;2022-07-21T00:49:55;21.83;;;13.70;;
5900;SDS011;2976;49.764;9.796;2022-07-21T00:52:22;18.57;;;13.70;;
5900;SDS011;2976;49.764;9.796;2022-07-21T00:54:48;15.40;;;12.03;;
5900;SDS011;2976;49.764;9.796;2022-07-21T00:57:13;21.73;;;14.10;;
5900;SDS011;2976;49.764;9.796;2022-07-21T00:59:41;24.80;;;12.83;;
5900;SDS011;2976;49.764;9.796;2022-07-21T01:02:08;17.63;;;14.17;;
5900;SDS011;2976;49.764;9.796;2022-07-21T01:04:34;14.90;;;12.40;;
5900;SDS011;2976;49.764;9.796;2022-07-21T01:07:01;17.70;;;13.60;;
5900;SDS011;2976;49.764;9.796;2022-07-21T01:09:28;15.33;;;13.07;;
5900;SDS011;2976;49.764;9.796;2022-07-21T01:11:53;17.20;;;13.93;;
5900;SDS011;2976;49.764;9.796;2022-07-21T01:14:19;16.83;;;13.50;;
5900;SDS011;2976;49.764;9.796;2022-07-21T01:16:45;17.97;;;15.20;;
5900;SDS011;2976;49.764;9.796;2022-07-21T01:19:11;18.50;;;13.90;;
5900;SDS011;2976;49.764;9.796;2022-07-21T01:21:41;18.50;;;14.80;;
5900;SDS011;2976;49.764;9.796;2022-07-21T01:24:08;20.47;;;14.53;;
5900;SDS011;2976;49.764;9.796;2022-07-21T01:26:41;17.83;;;14.47;;
5900;SDS011;2976;49.764;9.796;2022-07-21T01:29:08;22.87;;;15.40;;
5900;SDS011;2976;49.764;9.796;2022-07-21T01:31:35;16.83;;;14.77;;
5900;SDS011;2976;49.764;9.796;2022-07-21T01:34:01;20.83;;;15.63;;
5900;SDS011;2976;49.764;9.796;2022-07-21T01:36:27;22.60;;;15.97;;
5900;SDS011;2976;49.764;9.796;2022-07-21T01:38:53;20.20;;;15.80;;
5900;SDS011;2976;49.764;9.796;2022-07-21T01:41:37;22.90;;;16.87;;
5900;SDS011;2976;49.764;9.796;2022-07-21T01:44:04;26.83;;;18.37;;
5900;SDS011;2976;49.764;9.796;2022-07-21T01:46:34;24.03;;;17.73;;
5900;SDS011;2976;49.764;9.796;2022-07-21T01:49:01;28.30;;;18.80;;
5900;SDS011;2976;49.764;9.796;2022-07-21T01:51:27;21.53;;;18.07;;
5900;SDS011;2976;49.764;9.796;2022-07-21T01:53:53;31.40;;;18.70;;
5900;SDS011;2976;49.764;9.796;2022-07-21T01:56:19;24.90;;;19.87;;
5900;SDS011;2976;49.764;9.796;2022-07-21T01:58:46;29.97;;;19.50;;
5900;SDS011;2976;49.764;9.796;2022-07-21T02:01:12;24.57;;;19.30;;
5900;SDS011;2976;49.764;9.796;2022-07-21T02:03:39;28.73;;;18.40;;
5900;SDS011;2976;49.764;9.796;2022-07-21T02:06:05;22.73;;;18.17;;
5900;SDS011;2976;49.764;9.796;2022-07-21T02:08:32;24.47;;;18.50;;
5900;SDS011;2976;49.764;9.796;2022-07-21T02:10:58;23.10;;;17.77;;
5900;SDS011;2976;49.764;9.796;2022-07-21T02:13:23;26.00;;;18.83;;
5900;SDS011;2976;49.764;9.796;2022-07-21T02:15:49;21.93;;;18.63;;
5900;SDS011;2976;49.764;9.796;2022-07-21T02:18:15;22.70;;;18.33;;
5900;SDS011;2976;49.764;9.796;2022-07-21T02:20:40;23.37;;;18.80;;
5900;SDS011;2976;49.764;9.796;2022-07-21T02:23:06;23.93;;;18.77;;
5900;SDS011;2976;49.764;9.796;2022-07-21T02:25:32;23.97;;;19.13;;
5900;SDS011;2976;49.764;9.796;2022-07-21T02:27:58;25.97;;;18.57;;
5900;SDS011;2976;49.764;9.796;2022-07-21T02:30:23;27.63;;;17.73;;
5900;SDS011;2976;49.764;9.796;2022-07-21T02:32:49;26.97;;;17.80;;
5900;SDS011;2976;49.764;9.796;2022-07-21T02:35:14;22.90;;;17.67;;
5900;SDS011;2976;49.764;9.796;2022-07-21T02:37:40;29.90;;;17.90;;
5900;SDS011;2976;49.764;9.796;2022-07-21T02:40:06;25.90;;;18.37;;
5900;SDS011;2976;49.764;9.796;2022-07-21T02:42:32;23.57;;;16.83;;
5900;SDS011;2976;49.764;9.796;2022-07-21T02:44:57;24.33;;;17.57;;
5900;SDS011;2976;49.764;9.796;2022-07-21T02:47:23;20.07;;;15.80;;
5900;SDS011;2976;49.764;9.796;2022-07-21T02:49:48;22.23;;;14.27;;
5900;SDS011;2976;49.764;9.796;2022-07-21T02:52:14;20.97;;;16.03;;
5900;SDS011;2976;49.764;9.796;2022-07-21T02:54:40;19.70;;;15.10;;
5900;SDS011;2976;49.764;9.796;2022-07-21T02:57:05;16.13;;;14.30;;
5900;SDS011;2976;49.764;9.796;2022-07-21T02:59:31;17.27;;;13.17;;
5900;SDS011;2976;49.764;9.796;2022-07-21T03:01:56;17.13;;;12.90;;
5900;SDS011;2976;49.764;9.796;2022-07-21T03:04:22;18.60;;;13.10;;
5900;SDS011;2976;49.764;9.796;2022-07-21T03:06:48;17.77;;;13.17;;
5900;SDS011;2976;49.764;9.796;2022-07-21T03:09:13;18.93;;;13.40;;
5900;SDS011;2976;49.764;9.796;2022-07-21T03:11:39;13.37;;;11.97;;
5900;SDS011;2976;49.764;9.796;2022-07-21T03:14:04;20.20;;;12.40;;
5900;SDS011;2976;49.764;9.796;2022-07-21T03:16:30;23.50;;;13.60;;
5900;SDS011;2976;49.764;9.796;2022-07-21T03:18:56;14.20;;;11.57;;
5900;SDS011;2976;49.764;9.796;2022-07-21T03:21:21;13.33;;;11.30;;
5900;SDS011;2976;49.764;9.796;2022-07-21T03:23:47;17.33;;;12.57;;
5900;SDS011;2976;49.764;9.796;2022-07-21T03:26:13;18.87;;;13.40;;
5900;SDS011;2976;49.764;9.796;2022-07-21T03:28:40;16.43;;;11.70;;
5900;SDS011;2976;49.764;9.796;2022-07-21T03:31:09;18.63;;;12.27;;
5900;SDS011;2976;49.764;9.796;2022-07-21T03:33:35;20.20;;;13.73;;
5900;SDS011;2976;49.764;9.796;2022-07-21T03:36:01;23.30;;;14.37;;
5900;SDS011;2976;49.764;9.796;2022-07-21T03:38:27;17.10;;;14.80;;
5900;SDS011;2976;49.764;9.796;2022-07-21T03:40:53;26.37;;;17.57;;
5900;SDS011;2976;49.764;9.796;2022-07-21T03:43:18;18.60;;;15.53;;
5900;SDS011;2976;49.764;9.796;2022-07-21T03:45:44;18.47;;;15.80;;
5900;SDS011;2976;49.764;9.796;2022-07-21T03:48:10;19.87;;;16.37;;
5900;SDS011;2976;49.764;9.796;2022-07-21T03:50:37;26.00;;;17.17;;
5900;SDS011;2976;49.764;9.796;2022-07-21T03:53:04;33.17;;;18.83;;
5900;SDS011;2976;49.764;9.796;2022-07-21T03:55:30;32.57;;;19.67;;
5900;SDS011;2976;49.764;9.796;2022-07-21T03:57:57;28.90;;;19.43;;
5900;SDS011;2976;49.764;9.796;2022-07-21T04:00:27;33.33;;;19.17;;
5900;SDS011;2976;49.764;9.796;2022-07-21T04:02:53;23.80;;;19.57;;
5900;SDS011;2976;49.764;9.796;2022-07-21T04:05:19;25.40;;;19.77;;
5900;SDS011;2976;49.764;9.796;2022-07-21T04:07:46;23.97;;;20.73;;
5900;SDS011;2976;49.764;9.796;2022-07-21T04:10:14;25.93;;;21.77;;
5900;SDS011;2976;49.764;9.796;2022-07-21T04:12:41;27.53;;;20.90;;
5900;SDS011;2976;49.764;9.796;2022-07-21T04:15:08;33.63;;;21.67;;
5900;SDS011;2976;49.764;9.796;2022-07-21T04:17:34;32.50;;;22.10;;
5900;SDS011;2976;49.764;9.796;2022-07-21T04:20:00;34.90;;;23.07;;
5900;SDS011;2976;49.764;9.796;2022-07-21T04:22:26;24.93;;;21.13;;
5900;SDS011;2976;49.764;9.796;2022-07-21T04:24:52;29.73;;;22.30;;
5900;SDS011;2976;49.764;9.796;2022-07-21T04:27:17;26.03;;;23.23;;
5900;SDS011;2976;49.764;9.796;2022-07-21T04:29:43;33.77;;;22.80;;
5900;SDS011;2976;49.764;9.796;2022-07-21T04:32:08;30.43;;;22.77;;
5900;SDS011;2976;49.764;9.796;2022-07-21T04:34:34;28.30;;;23.50;;
5900;SDS011;2976;49.764;9.796;2022-07-21T04:37:00;26.80;;;21.37;;
5900;SDS011;2976;49.764;9.796;2022-07-21T04:39:25;26.43;;;23.63;;
5900;SDS011;2976;49.764;9.796;2022-07-21T04:41:51;27.37;;;22.13;;
5900;SDS011;2976;49.764;9.796;2022-07-21T04:44:16;29.30;;;22.20;;
5900;SDS011;2976;49.764;9.796;2022-07-21T04:46:42;31.20;;;24.50;;
5900;SDS011;2976;49.764;9.796;2022-07-21T04:49:07;29.70;;;24.03;;
5900;SDS011;2976;49.764;9.796;2022-07-21T04:51:33;25.27;;;21.57;;
5900;SDS011;2976;49.764;9.796;2022-07-21T04:53:59;30.47;;;21.63;;
5900;SDS011;2976;49.764;9.796;2022-07-21T04:56:24;26.20;;;21.97;;
5900;SDS011;2976;49.764;9.796;2022-07-21T04:58:50;22.93;;;19.40;;
5900;SDS011;2976;49.764;9.796;2022-07-21T05:01:15;36.90;;;20.00;;
5900;SDS011;2976;49.764;9.796;2022-07-21T05:03:43;26.97;;;20.10;;
5900;SDS011;2976;49.764;9.796;2022-07-21T05:06:09;29.17;;;21.20;;
5900;SDS011;2976;49.764;9.796;2022-07-21T05:08:34;24.70;;;20.03;;
5900;SDS011;2976;49.764;9.796;2022-07-21T05:11:00;26.93;;;17.77;;
5900;SDS011;2976;49.764;9.796;2022-07-21T05:13:25;32.07;;;18.43;;
5900;SDS011;2976;49.764;9.796;2022-07-21T05:15:51;20.50;;;17.30;;
5900;SDS011;2976;49.764;9.796;2022-07-21T05:18:16;22.87;;;16.13;;
5900;SDS011;2976;49.764;9.796;2022-07-21T05:20:42;19.57;;;16.00;;
5900;SDS011;2976;49.764;9.796;2022-07-21T05:23:08;19.17;;;15.87;;
5900;SDS011;2976;49.764;9.796;2022-07-21T05:25:33;23.30;;;15.63;;
5900;SDS011;2976;49.764;9.796;2022-07-21T05:28:00;18.93;;;14.33;;
5900;SDS011;2976;49.764;9.796;2022-07-21T05:30:26;16.03;;;13.63;;
5900;SDS011;2976;49.764;9.796;2022-07-21T05:32:52;20.83;;;13.37;;
5900;SDS011;2976;49.764;9.796;2022-07-21T05:35:17;14.57;;;13.07;;
5900;SDS011;2976;49.764;9.796;2022-07-21T05:37:43;16.10;;;12.73;;
5900;SDS011;2976;49.764;9.796;2022-07-21T05:40:10;15.80;;;13.13;;
5900;SDS011;2976;49.764;9.796;2022-07-21T05:42:36;15.13;;;13.27;;
5900;SDS011;2976;49.764;9.796;2022-07-21T05:45:02;15.50;;;12.27;;
5900;SDS011;2976;49.764;9.796;2022-07-21T05:47:29;16.90;;;12.03;;
5900;SDS011;2976;49.764;9.796;2022-07-21T05:49:56;15.20;;;12.00;;
5900;SDS011;2976;49.764;9.796;2022-07-21T05:52:22;13.07;;;10.53;;
5900;SDS011;2976;49.764;9.796;2022-07-21T05:54:47;15.07;;;10.43;;
5900;SDS011;2976;49.764;9.796;2022-07-21T05:57:13;13.57;;;10.00;;
5900;SDS011;2976;49.764;9.796;2022-07-21T05:59:38;12.80;;;10.17;;
5900;SDS011;2976;49.764;9.796;2022-07-21T06:02:04;11.83;;;8.57;;
5900;SDS011;2976;49.764;9.796;2022-07-21T06:04:29;12.30;;;10.07;;
5900;SDS011;2976;49.764;9.796;2022-07-21T06:06:55;11.60;;;10.27;;
5900;SDS011;2976;49.764;9.796;2022-07-21T06:09:21;13.83;;;10.37;;
5900;SDS011;2976;49.764;9.796;2022-07-21T06:11:46;11.43;;;10.33;;
5900;SDS011;2976;49.764;9.796;2022-07-21T06:14:12;14.03;;;11.23;;
5900;SDS011;2976;49.764;9.796;2022-07-21T06:16:37;13.87;;;9.67;;
5900;SDS011;2976;49.764;9.796;2022-07-21T06:19:04;12.97;;;10.53;;
5900;SDS011;2976;49.764;9.796;2022-07-21T06:21:31;9.50;;;8.57;;
5900;SDS011;2976;49.764;9.796;2022-07-21T06:23:57;10.97;;;9.10;;
5900;SDS011;2976;49.764;9.796;2022-07-21T06:26:23;11.47;;;9.27;;
5900;SDS011;2976;49.764;9.796;2022-07-21T06:28:48;13.10;;;10.03;;
5900;SDS011;2976;49.764;9.796;2022-07-21T06:31:14;14.17;;;10.00;;
5900;SDS011;2976;49.764;9.796;2022-07-21T06:33:40;16.13;;;10.10;;
5900;SDS011;2976;49.764;9.796;2022-07-21T06:36:06;11.40;;;8.60;;
5900;SDS011;2976;49.764;9.796;2022-07-21T06:38:32;10.37;;;9.00;;
5900;SDS011;2976;49.764;9.796;2022-07-21T06:40:57;15.83;;;9.00;;
5900;SDS011;2976;49.764;9.796;2022-07-21T06:43:23;11.93;;;8.13;;
5900;SDS011;2976;49.764;9.796;2022-07-21T06:45:48;9.67;;;8.00;;
5900;SDS011;2976;49.764;9.796;2022-07-21T06:48:15;12.03;;;7.10;;
5900;SDS011;2976;49.764;9.796;2022-07-21T06:50:41;8.53;;;6.70;;
5900;SDS011;2976;49.764;9.796;2022-07-21T06:53:07;10.70;;;7.70;;
5900;SDS011;2976;49.764;9.796;2022-07-21T06:55:32;9.63;;;7.23;;
5900;SDS011;2976;49.764;9.796;2022-07-21T06:58:08;7.20;;;6.53;;
5900;SDS011;2976;49.764;9.796;2022-07-21T07:00:41;9.37;;;7.57;;
5900;SDS011;2976;49.764;9.796;2022-07-21T07:03:07;8.20;;;7.10;;
5900;SDS011;2976;49.764;9.796;2022-07-21T07:05:33;8.07;;;7.27;;
5900;SDS011;2976;49.764;9.796;2022-07-21T07:07:59;14.43;;;7.10;;
5900;SDS011;2976;49.764;9.796;2022-07-21T07:10:25;8.57;;;5.67;;
5900;SDS011;2976;49.764;9.796;2022-07-21T07:12:50;12.90;;;5.97;;
5900;SDS011;2976;49.764;9.796;2022-07-21T07:15:16;7.97;;;6.10;;
5900;SDS011;2976;49.764;9.796;2022-07-21T07:17:42;8.17;;;6.20;;
5900;SDS011;2976;49.764;9.796;2022-07-21T07:20:07;6.10;;;5.60;;
5900;SDS011;2976;49.764;9.796;2022-07-21T07:22:33;7.53;;;5.87;;
5900;SDS011;2976;49.764;9.796;2022-07-21T07:24:59;9.40;;;6.47;;
5900;SDS011;2976;49.764;9.796;2022-07-21T07:27:24;10.00;;;6.77;;
5900;SDS011;2976;49.764;9.796;2022-07-21T07:29:50;9.40;;;6.70;;
5900;SDS011;2976;49.764;9.796;2022-07-21T07:32:16;7.57;;;6.60;;
5900;SDS011;2976;49.764;9.796;2022-07-21T07:34:41;10.40;;;6.47;;
5900;SDS011;2976;49.764;9.796;2022-07-21T07:37:07;7.13;;;6.20;;
5900;SDS011;2976;49.764;9.796;2022-07-21T07:39:33;12.00;;;6.53;;
5900;SDS011;2976;49.764;9.796;2022-07-21T07:41:59;7.37;;;6.67;;
5900;SDS011;2976;49.764;9.796;2022-07-21T07:44:24;8.40;;;7.07;;
5900;SDS011;2976;49.764;9.796;2022-07-21T07:46:50;8.90;;;6.50;;
5900;SDS011;2976;49.764;9.796;2022-07-21T07:49:15;6.53;;;5.93;;
5900;SDS011;2976;49.764;9.796;2022-07-21T07:51:41;7.50;;;6.70;;
5900;SDS011;2976;49.764;9.796;2022-07-21T07:54:07;11.90;;;7.37;;
5900;SDS011;2976;49.764;9.796;2022-07-21T07:56:33;9.57;;;7.37;;
5900;SDS011;2976;49.764;9.796;2022-07-21T07:58:59;8.20;;;7.40;;
5900;SDS011;2976;49.764;9.796;2022-07-21T08:01:24;7.80;;;7.00;;
5900;SDS011;2976;49.764;9.796;2022-07-21T08:03:50;13.37;;;7.83;;
5900;SDS011;2976;49.764;9.796;2022-07-21T08:06:15;7.03;;;6.37;;
5900;SDS011;2976;49.764;9.796;2022-07-21T08:08:41;10.27;;;7.77;;
5900;SDS011;2976;49.764;9.796;2022-07-21T08:11:07;7.73;;;6.00;;
5900;SDS011;2976;49.764;9.796;2022-07-21T08:13:32;8.43;;;6.70;;
5900;SDS011;2976;49.764;9.796;2022-07-21T08:15:59;10.20;;;6.90;;
5900;SDS011;2976;49.764;9.796;2022-07-21T08:18:24;7.97;;;7.00;;
5900;SDS011;2976;49.764;9.796;2022-07-21T08:20:50;8.03;;;7.00;;
5900;SDS011;2976;49.764;9.796;2022-07-21T08:23:16;7.23;;;6.53;;
5900;SDS011;2976;49.764;9.796;2022-07-21T08:25:42;10.83;;;6.83;;
5900;SDS011;2976;49.764;9.796;2022-07-21T08:28:08;6.57;;;5.97;;
5900;SDS011;2976;49.764;9.796;2022-07-21T08:30:34;8.40;;;6.40;;
5900;SDS011;2976;49.764;9.796;2022-07-21T08:33:00;6.30;;;5.70;;
5900;SDS011;2976;49.764;9.796;2022-07-21T08:35:27;6.10;;;5.50;;
5900;SDS011;2976;49.764;9.796;2022-07-21T08:37:54;8.03;;;5.23;;
5900;SDS011;2976;49.764;9.796;2022-07-21T08:40:25;8.70;;;5.87;;
5900;SDS011;2976;49.764;9.796;2022-07-21T08:42:52;10.87;;;5.40;;
5900;SDS011;2976;49.764;9.796;2022-07-21T08:45:19;7.77;;;5.90;;
5900;SDS011;2976;49.764;9.796;2022-07-21T08:47:47;6.30;;;5.47;;
5900;SDS011;2976;49.764;9.796;2022-07-21T08:50:18;6.13;;;4.83;;
5900;SDS011;2976;49.764;9.796;2022-07-21T08:52:46;6.27;;;5.67;;
5900;SDS011;2976;49.764;9.796;2022-07-21T08:55:12;8.67;;;5.43;;
5900;SDS011;2976;49.764;9.796;2022-07-21T08:57:38;6.50;;;5.90;;
5900;SDS011;2976;49.764;9.796;2022-07-21T09:00:05;5.60;;;4.53;;
5900;SDS011;2976;49.764;9.796;2022-07-21T09:02:33;7.03;;;5.10;;
5900;SDS011;2976;49.764;9.796;2022-07-21T09:05:00;8.30;;;4.23;;
5900;SDS011;2976;49.764;9.796;2022-07-21T09:07:26;5.13;;;4.33;;
5900;SDS011;2976;49.764;9.796;2022-07-21T09:09:56;6.20;;;5.13;;
5900;SDS011;2976;49.764;9.796;2022-07-21T09:12:26;6.33;;;4.57;;
5900;SDS011;2976;49.764;9.796;2022-07-21T09:14:54;7.63;;;5.63;;
5900;SDS011;2976;49.764;9.796;2022-07-21T09:17:38;8.67;;;5.60;;
5900;SDS011;2976;49.764;9.796;2022-07-21T09:20:04;8.00;;;6.20;;
5900;SDS011;2976;49.764;9.796;2022-07-21T09:23:00;6.57;;;5.90;;
5900;SDS011;2976;49.764;9.796;2022-07-21T09:25:33;10.63;;;6.80;;
5900;SDS011;2976;49.764;9.796;2022-07-21T09:28:15;7.20;;;6.00;;
5900;SDS011;2976;49.764;9.796;2022-07-21T09:33:28;6.10;;;5.50;;
5900;SDS011;2976;49.764;9.796;2022-07-21T09:38:35;5.50;;;4.30;;
5900;SDS011;2976;49.764;9.796;2022-07-21T09:41:16;7.37;;;4.83;;
5900;SDS011;2976;49.764;9.796;2022-07-21T09:43:45;9.17;;;5.07;;
5900;SDS011;2976;49.764;9.796;2022-07-21T09:46:17;14.33;;;5.63;;
5900;SDS011;2976;49.764;9.796;2022-07-21T09:48:48;5.13;;;4.53;;
5900;SDS011;2976;49.764;9.796;2022-07-21T09:51:23;5.73;;;5.10;;
5900;SDS011;2976;49.764;9.796;2022-07-21T09:56:17;7.47;;;4.53;;
5900;SDS011;2976;49.764;9.796;2022-07-21T09:58:45;4.90;;;4.17;;
5900;SDS011;2976;49.764;9.796;2022-07-21T10:01:12;4.90;;;4.40;;
5900;SDS011;2976;49.764;9.796;2022-07-21T10:03:38;6.80;;;4.87;;
5900;SDS011;2976;49.764;9.796;2022-07-21T10:06:04;9.27;;;5.20;;
5900;SDS011;2976;49.764;9.796;2022-07-21T10:08:30;5.43;;;4.63;;
5900;SDS011;2976;49.764;9.796;2022-07-21T10:10:58;8.50;;;4.47;;
5900;SDS011;2976;49.764;9.796;2022-07-21T10:13:24;5.03;;;3.73;;
5900;SDS011;2976;49.764;9.796;2022-07-21T10:15:51;4.03;;;3.73;;
5900;SDS011;2976;49.764;9.796;2022-07-21T10:18:17;4.27;;;3.90;;
5900;SDS011;2976;49.764;9.796;2022-07-21T10:20:48;4.40;;;4.00;;
5900;SDS011;2976;49.764;9.796;2022-07-21T10:23:37;3.67;;;3.37;;
5900;SDS011;2976;49.764;9.796;2022-07-21T10:26:06;4.23;;;3.33;;
5900;SDS011;2976;49.764;9.796;2022-07-21T10:28:33;4.30;;;2.80;;
5900;SDS011;2976;49.764;9.796;2022-07-21T10:30:59;3.70;;;3.10;;
5900;SDS011;2976;49.764;9.796;2022-07-21T10:36:09;3.17;;;2.97;;
5900;SDS011;2976;49.764;9.796;2022-07-21T10:39:19;3.90;;;2.30;;
5900;SDS011;2976;49.764;9.796;2022-07-21T10:49:52;4.77;;;2.80;;
5900;SDS011;2976;49.764;9.796;2022-07-21T10:57:35;3.10;;;2.70;;
5900;SDS011;2976;49.764;9.796;2022-07-21T11:00:17;3.40;;;3.20;;
5900;SDS011;2976;49.764;9.796;2022-07-21T11:02:45;2.93;;;2.73;;
5900;SDS011;2976;49.764;9.796;2022-07-21T11:05:12;3.40;;;3.10;;
5900;SDS011;2976;49.764;9.796;2022-07-21T11:10:38;4.83;;;3.17;;
5900;SDS011;2976;49.764;9.796;2022-07-21T11:13:06;2.80;;;2.60;;
5900;SDS011;2976;49.764;9.796;2022-07-21T11:15:44;2.67;;;2.57;;
5900;SDS011;2976;49.764;9.796;2022-07-21T11:18:17;3.27;;;3.00;;
5900;SDS011;2976;49.764;9.796;2022-07-21T11:20:59;3.40;;;3.10;;
5900;SDS011;2976;49.764;9.796;2022-07-21T11:23:41;5.63;;;2.90;;
5900;SDS011;2976;49.764;9.796;2022-07-21T11:26:09;3.60;;;3.00;;
5900;SDS011;2976;49.764;9.796;2022-07-21T11:28:36;3.57;;;3.27;;
5900;SDS011;2976;49.764;9.796;2022-07-21T11:31:06;6.97;;;4.53;;
5900;SDS011;2976;49.764;9.796;2022-07-21T11:33:33;8.27;;;2.60;;
5900;SDS011;2976;49.764;9.796;2022-07-21T11:36:02;4.93;;;2.47;;
5900;SDS011;2976;49.764;9.796;2022-07-21T11:38:28;3.93;;;2.90;;
5900;SDS011;2976;49.764;9.796;2022-07-21T11:40:53;7.33;;;2.53;;
5900;SDS011;2976;49.764;9.796;2022-07-21T11:43:43;3.37;;;2.27;;
5900;SDS011;2976;49.764;9.796;2022-07-21T11:46:09;3.30;;;3.00;;
5900;SDS011;2976;49.764;9.796;2022-07-21T11:48:35;3.80;;;3.50;;
5900;SDS011;2976;49.764;9.796;2022-07-21T11:51:04;2.90;;;2.70;;
5900;SDS011;2976;49.764;9.796;2022-07-21T11:53:31;3.60;;;2.90;;
5900;SDS011;2976;49.764;9.796;2022-07-21T11:55:57;2.97;;;2.77;;
5900;SDS011;2976;49.764;9.796;2022-07-21T11:58:23;3.80;;;3.17;;
5900;SDS011;2976;49.764;9.796;2022-07-21T12:00:52;5.13;;;3.13;;
5900;SDS011;2976;49.764;9.796;2022-07-21T12:03:48;6.40;;;3.70;;
5900;SDS011;2976;49.764;9.796;2022-07-21T12:06:14;3.03;;;2.83;;
5900;SDS011;2976;49.764;9.796;2022-07-21T12:08:42;3.83;;;3.53;;
5900;SDS011;2976;49.764;9.796;2022-07-21T12:11:09;4.40;;;4.00;;
5900;SDS011;2976;49.764;9.796;2022-07-21T12:13:53;4.27;;;3.87;;
5900;SDS011;2976;49.764;9.796;2022-07-21T12:16:19;4.10;;;3.50;;
5900;SDS011;2976;49.764;9.796;2022-07-21T12:18:45;4.43;;;3.40;;
5900;SDS011;2976;49.764;9.796;2022-07-21T12:21:11;3.70;;;3.23;;
5900;SDS011;2976;49.764;9.796;2022-07-21T12:23:36;3.60;;;3.40;;
5900;SDS011;2976;49.764;9.796;2022-07-21T12:26:02;9.10;;;4.00;;
5900;SDS011;2976;49.764;9.796;2022-07-21T12:28:42;4.07;;;3.70;;
5900;SDS011;2976;49.764;9.796;2022-07-21T12:31:12;5.67;;;3.80;;
5900;SDS011;2976;49.764;9.796;2022-07-21T12:33:41;4.33;;;3.60;;
5900;SDS011;2976;49.764;9.796;2022-07-21T12:36:08;4.37;;;3.60;;
5900;SDS011;2976;49.764;9.796;2022-07-21T12:38:38;4.83;;;4.13;;
5900;SDS011;2976;49.764;9.796;2022-07-21T12:41:04;5.13;;;3.90;;
5900;SDS011;2976;49.764;9.796;2022-07-21T12:43:30;5.83;;;4.07;;
5900;SDS011;2976;49.764;9.796;2022-07-21T12:46:00;6.63;;;3.40;;
5900;SDS011;2976;49.764;9.796;2022-07-21T12:48:28;4.10;;;3.77;;
5900;SDS011;2976;49.764;9.796;2022-07-21T12:53:25;4.03;;;3.57;;
5900;SDS011;2976;49.764;9.796;2022-07-21T12:55:51;3.37;;;3.17;;
5900;SDS011;2976;49.764;9.796;2022-07-21T12:58:16;4.00;;;3.27;;
5900;SDS011;2976;49.764;9.796;2022-07-21T13:00:42;4.80;;;3.00;;
5900;SDS011;2976;49.764;9.796;2022-07-21T13:03:08;5.17;;;3.43;;
5900;SDS011;2976;49.764;9.796;2022-07-21T13:05:33;4.60;;;4.20;;
5900;SDS011;2976;49.764;9.796;2022-07-21T13:07:59;4.70;;;3.30;;
5900;SDS011;2976;49.764;9.796;2022-07-21T13:10:24;9.40;;;3.87;;
5900;SDS011;2976;49.764;9.796;2022-07-21T13:12:50;4.07;;;3.70;;
5900;SDS011;2976;49.764;9.796;2022-07-21T13:15:16;4.77;;;3.90;;
5900;SDS011;2976;49.764;9.796;2022-07-21T13:17:42;5.57;;;3.90;;
5900;SDS011;2976;49.764;9.796;2022-07-21T13:20:08;3.70;;;3.40;;
5900;SDS011;2976;49.764;9.796;2022-07-21T13:22:34;9.90;;;4.40;;
5900;SDS011;2976;49.764;9.796;2022-07-21T13:24:59;7.33;;;4.20;;
5900;SDS011;2976;49.764;9.796;2022-07-21T13:27:25;3.57;;;3.27;;
5900;SDS011;2976;49.764;9.796;2022-07-21T13:29:51;4.77;;;4.30;;
5900;SDS011;2976;49.764;9.796;2022-07-21T13:32:16;4.67;;;3.77;;
5900;SDS011;2976;49.764;9.796;2022-07-21T13:34:42;4.23;;;3.83;;
5900;SDS011;2976;49.764;9.796;2022-07-21T13:37:07;4.10;;;3.80;;
5900;SDS011;2976;49.764;9.796;2022-07-21T13:39:36;4.47;;;3.70;;
5900;SDS011;2976;49.764;9.796;2022-07-21T13:42:02;5.00;;;4.40;;
5900;SDS011;2976;49.764;9.796;2022-07-21T13:44:29;8.10;;;4.40;;
5900;SDS011;2976;49.764;9.796;2022-07-21T13:46:55;11.10;;;4.30;;
5900;SDS011;2976;49.764;9.796;2022-07-21T13:49:21;3.77;;;3.47;;
5900;SDS011;2976;49.764;9.796;2022-07-21T13:51:47;4.80;;;4.30;;
5900;SDS011;2976;49.764;9.796;2022-07-21T13:54:13;4.43;;;4.13;;
5900;SDS011;2976;49.764;9.796;2022-07-21T13:56:39;5.27;;;4.13;;
5900;SDS011;2976;49.764;9.796;2022-07-21T13:59:04;5.27;;;3.90;;
5900;SDS011;2976;49.764;9.796;2022-07-21T14:01:30;5.30;;;4.40;;
5900;SDS011;2976;49.764;9.796;2022-07-21T14:03:55;5.00;;;4.50;;
5900;SDS011;2976;49.764;9.796;2022-07-21T14:06:21;6.90;;;3.80;;
5900;SDS011;2976;49.764;9.796;2022-07-21T14:08:47;6.73;;;4.60;;
5900;SDS011;2976;49.764;9.796;2022-07-21T14:11:13;7.17;;;6.47;;
5900;SDS011;2976;49.764;9.796;2022-07-21T14:13:39;4.60;;;4.20;;
5900;SDS011;2976;49.764;9.796;2022-07-21T14:16:05;7.67;;;4.80;;
5900;SDS011;2976;49.764;9.796;2022-07-21T14:18:31;12.40;;;4.80;;
5900;SDS011;2976;49.764;9.796;2022-07-21T14:20:57;10.07;;;4.10;;
5900;SDS011;2976;49.764;9.796;2022-07-21T14:23:23;4.73;;;4.33;;
5900;SDS011;2976;49.764;9.796;2022-07-21T14:25:50;9.17;;;5.70;;
5900;SDS011;2976;49.764;9.796;2022-07-21T14:28:16;5.60;;;5.20;;
5900;SDS011;2976;49.764;9.796;2022-07-21T14:30:42;4.80;;;4.23;;
5900;SDS011;2976;49.764;9.796;2022-07-21T14:33:08;6.43;;;4.67;;
5900;SDS011;2976;49.764;9.796;2022-07-21T14:35:34;13.83;;;4.50;;
5900;SDS011;2976;49.764;9.796;2022-07-21T14:38:00;7.47;;;4.33;;
5900;SDS011;2976;49.764;9.796;2022-07-21T14:40:26;5.10;;;3.87;;
5900;SDS011;2976;49.764;9.796;2022-07-21T14:42:52;6.47;;;5.20;;
5900;SDS011;2976;49.764;9.796;2022-07-21T14:45:18;7.33;;;4.97;;
5900;SDS011;2976;49.764;9.796;2022-07-21T14:47:45;4.90;;;4.43;;
5900;SDS011;2976;49.764;9.796;2022-07-21T14:50:13;5.40;;;4.60;;
5900;SDS011;2976;49.764;9.796;2022-07-21T14:52:40;4.73;;;4.27;;
5900;SDS011;2976;49.764;9.796;2022-07-21T14:55:06;5.23;;;4.53;;
5900;SDS011;2976;49.764;9.796;2022-07-21T14:57:33;5.10;;;4.40;;
5900;SDS011;2976;49.764;9.796;2022-07-21T14:59:59;4.73;;;4.13;;
5900;SDS011;2976;49.764;9.796;2022-07-21T15:02:25;4.60;;;4.20;;
5900;SDS011;2976;49.764;9.796;2022-07-21T15:04:50;4.40;;;4.00;;
5900;SDS011;2976;49.764;9.796;2022-07-21T15:07:16;7.20;;;5.00;;
5900;SDS011;2976;49.764;9.796;2022-07-21T15:09:42;5.43;;;4.27;;
5900;SDS011;2976;49.764;9.796;2022-07-21T15:12:08;7.37;;;4.80;;
5900;SDS011;2976;49.764;9.796;2022-07-21T15:14:35;5.80;;;4.83;;
5900;SDS011;2976;49.764;9.796;2022-07-21T15:17:01;6.23;;;5.10;;
5900;SDS011;2976;49.764;9.796;2022-07-21T15:19:27;4.70;;;4.30;;
5900;SDS011;2976;49.764;9.796;2022-07-21T15:21:53;4.90;;;4.40;;
5900;SDS011;2976;49.764;9.796;2022-07-21T15:24:19;6.40;;;4.67;;
5900;SDS011;2976;49.764;9.796;2022-07-21T15:26:44;5.37;;;4.87;;
5900;SDS011;2976;49.764;9.796;2022-07-21T15:29:10;4.80;;;4.33;;
5900;SDS011;2976;49.764;9.796;2022-07-21T15:31:36;10.23;;;4.20;;